Estación de El Tambo INIA
Ultimos registro cada 15 minutos 63
| N° | Estación | Fecha / Hora | Temperatura | Humedad | Lluvia | Velocidad | Dirección | Radiación | Presion |
| 63 | El Tambo INIA | 06-05-2026 15:30 | 14,7 | 96 | 0 | 1,6 | 269 | 65 | 989 |
| 62 | El Tambo INIA | 06-05-2026 15:15 | 15,3 | 93,3 | 0 | 2,7 | 269 | 90 | 988 |
| 61 | El Tambo INIA | 06-05-2026 15:00 | 15,9 | 87,9 | 0 | 2,8 | 272 | 364 | 988 |
| 60 | El Tambo INIA | 06-05-2026 14:45 | 15,3 | 92,3 | 0 | 2,9 | 270 | 452 | 988 |
| 59 | El Tambo INIA | 06-05-2026 14:30 | 14,6 | 96,2 | 0 | 2,7 | 273 | 180 | 988 |
| 58 | El Tambo INIA | 06-05-2026 14:15 | 14,4 | 96,7 | 0,1 | 2,1 | 270 | 111 | 988 |
| 57 | El Tambo INIA | 06-05-2026 14:00 | 14 | 98,8 | 0,4 | 0,6 | 285 | 68 | 988 |
| 56 | El Tambo INIA | 06-05-2026 13:45 | 13,8 | 98,1 | 0,4 | 1,2 | 315 | 28 | 988 |
| 55 | El Tambo INIA | 06-05-2026 13:30 | 13,7 | 97,5 | 0,2 | 0,7 | 331 | 36 | 988 |
| 54 | El Tambo INIA | 06-05-2026 13:15 | 13,8 | 95,7 | 0,4 | 0,9 | 26 | 28 | 987 |
| 53 | El Tambo INIA | 06-05-2026 13:00 | 14 | 95,8 | 0,3 | 0,9 | 16 | 25 | 987 |
| 52 | El Tambo INIA | 06-05-2026 12:45 | 13,9 | 96,9 | 0 | 0,5 | 9 | 92 | 987 |
| 51 | El Tambo INIA | 06-05-2026 12:30 | 13,9 | 96,9 | 0,1 | 1,2 | 299 | 25 | 988 |
| 50 | El Tambo INIA | 06-05-2026 12:15 | 14 | 96,6 | 0 | 1,2 | 266 | 64 | 987 |
| 49 | El Tambo INIA | 06-05-2026 12:00 | 13,8 | 97,5 | 0 | 1 | 260 | 72 | 987 |
| 48 | El Tambo INIA | 06-05-2026 11:45 | 13,4 | 98,7 | 0,1 | 1,3 | 282 | 103 | 987 |
| 47 | El Tambo INIA | 06-05-2026 11:30 | 12,9 | 98,5 | 0,1 | 1,7 | 298 | 111 | 987 |
| 46 | El Tambo INIA | 06-05-2026 11:15 | 12,7 | 98,2 | 0,1 | 1,8 | 294 | 85 | 987 |
| 45 | El Tambo INIA | 06-05-2026 11:00 | 12,2 | 98,9 | 0,3 | 2,1 | 287 | 88 | 986 |
| 44 | El Tambo INIA | 06-05-2026 10:45 | 12,2 | 98,4 | 0,8 | 2 | 273 | 55 | 986 |
| 43 | El Tambo INIA | 06-05-2026 10:30 | 12,2 | 97,7 | 0,5 | 2,1 | 251 | 92 | 986 |
| 42 | El Tambo INIA | 06-05-2026 10:15 | 12,4 | 96 | 0 | 1,2 | 259 | 32 | 985 |
| 41 | El Tambo INIA | 06-05-2026 10:00 | 12,2 | 94,6 | 0 | 0,7 | 278 | 59 | 985 |
| 40 | El Tambo INIA | 06-05-2026 09:45 | 11,9 | 96,8 | 0 | 0,9 | 280 | 124 | 986 |
| 39 | El Tambo INIA | 06-05-2026 09:30 | 11,5 | 98 | 0,1 | 1,4 | 261 | 173 | 986 |
| 38 | El Tambo INIA | 06-05-2026 09:15 | 10,7 | 99,9 | 0 | 0,6 | 271 | 168 | 986 |
| 37 | El Tambo INIA | 06-05-2026 09:00 | 9,8 | 100 | 0 | 1,3 | 288 | 74 | 986 |
| 36 | El Tambo INIA | 06-05-2026 08:45 | 9,5 | 99,3 | 0,1 | 2,1 | 290 | 23 | 986 |
| 35 | El Tambo INIA | 06-05-2026 08:30 | 9,4 | 99 | 0,1 | 2,2 | 263 | 41 | 986 |
| 34 | El Tambo INIA | 06-05-2026 08:15 | 9 | 98,9 | 0 | 1,8 | 257 | 73 | 986 |
| 33 | El Tambo INIA | 06-05-2026 08:00 | 8,8 | 98,5 | 0 | 1 | 231 | 70 | 985 |
| 32 | El Tambo INIA | 06-05-2026 07:45 | 9,7 | 96,8 | 0 | 0,8 | 219 | 21 | 985 |
| 31 | El Tambo INIA | 06-05-2026 07:30 | 9,2 | 100 | 0 | 1,5 | 116 | 3 | 985 |
| 30 | El Tambo INIA | 06-05-2026 07:15 | 6,9 | 100 | 0 | 1,4 | 147 | 0 | 984 |
| 29 | El Tambo INIA | 06-05-2026 07:00 | 6,5 | 100 | 0 | 0,5 | 125 | 0 | 984 |
| 28 | El Tambo INIA | 06-05-2026 06:45 | 6,7 | 100 | 0 | 0,4 | 246 | 0 | 985 |
| 27 | El Tambo INIA | 06-05-2026 06:30 | 7,4 | 100 | 0 | 0,1 | 93 | 0 | 985 |
| 26 | El Tambo INIA | 06-05-2026 06:15 | 8 | 100 | 0 | 0,4 | 22 | 0 | 985 |
| 25 | El Tambo INIA | 06-05-2026 06:00 | 8,1 | 100 | 0 | 0,7 | 112 | 0 | 985 |
| 24 | El Tambo INIA | 06-05-2026 05:45 | 8 | 100 | 0 | 0,8 | 103 | 0 | 985 |
| 23 | El Tambo INIA | 06-05-2026 05:30 | 8,3 | 100 | 0 | 0,3 | 60 | 0 | 985 |
| 22 | El Tambo INIA | 06-05-2026 05:15 | 8 | 100 | 0 | 0,8 | 106 | 0 | 984 |
| 21 | El Tambo INIA | 06-05-2026 05:00 | 7,9 | 100 | 0 | 1,1 | 64 | 0 | 984 |
| 20 | El Tambo INIA | 06-05-2026 04:45 | 7,9 | 100 | 0 | 0,5 | 96 | 0 | 984 |
| 19 | El Tambo INIA | 06-05-2026 04:30 | 8,6 | 100 | 0 | 0 | 0 | 0 | 984 |
| 18 | El Tambo INIA | 06-05-2026 04:15 | 9,1 | 100 | 0 | 0,1 | 87 | 0 | 985 |
| 17 | El Tambo INIA | 06-05-2026 04:00 | 9,3 | 100 | 0 | 0,5 | 97 | 0 | 985 |
| 16 | El Tambo INIA | 06-05-2026 03:45 | 9,3 | 100 | 0 | 0,7 | 102 | 0 | 984 |
| 15 | El Tambo INIA | 06-05-2026 03:30 | 9,3 | 100 | 0 | 0,4 | 235 | 0 | 985 |
| 14 | El Tambo INIA | 06-05-2026 03:15 | 9,2 | 100 | 0 | 2,1 | 291 | 0 | 985 |
| 13 | El Tambo INIA | 06-05-2026 03:00 | 9,3 | 100 | 0 | 1,3 | 294 | 0 | 985 |
| 12 | El Tambo INIA | 06-05-2026 02:45 | 9,5 | 100 | 0 | 0,6 | 265 | 0 | 984 |
| 11 | El Tambo INIA | 06-05-2026 02:30 | 9,6 | 100 | 0 | 0,2 | 220 | 0 | 984 |
| 10 | El Tambo INIA | 06-05-2026 02:15 | 9,8 | 100 | 0 | 0,6 | 218 | 0 | 985 |
| 9 | El Tambo INIA | 06-05-2026 02:00 | 10,2 | 99,6 | 0 | 0,2 | 244 | 0 | 985 |
| 8 | El Tambo INIA | 06-05-2026 01:45 | 10,5 | 99,6 | 0 | 0,8 | 284 | 0 | 985 |
| 7 | El Tambo INIA | 06-05-2026 01:30 | 10,7 | 99,6 | 0 | 2 | 290 | 0 | 985 |
| 6 | El Tambo INIA | 06-05-2026 01:15 | 10,4 | 99,3 | 0 | 1,4 | 288 | 0 | 985 |
| 5 | El Tambo INIA | 06-05-2026 01:00 | 10,2 | 99,1 | 0 | 1,2 | 297 | 0 | 985 |
| 4 | El Tambo INIA | 06-05-2026 00:45 | 9,9 | 98,9 | 0 | 1 | 283 | 0 | 985 |
| 3 | El Tambo INIA | 06-05-2026 00:30 | 10,1 | 97,1 | 0 | 0,4 | 288 | 0 | 985 |
| 2 | El Tambo INIA | 06-05-2026 00:15 | 10,1 | 97,6 | 0 | 0 | 0 | 0 | 985 |
| 1 | El Tambo INIA | 06-05-2026 00:00 | 10,2 | 96,1 | 0 | 0 | 35 | 0 | 985 |